Curry, Idaho
Current Conditions -  °F | °C
As of 5:53 AM on Monday 22 Dec 2014 (Local Time) from KTWF Reporting Station
Overcast Overcast  
Wind Chill: 30°   Ceiling: 800
Heat Index: 40°   Visibility: 10mi
Dew Point: 36°   Wind: 21mph
Humidity: 86%   Direction: 270°W
Pressure: 30.04"   Gusts: 30mph
Location:  42.5734°N, 114.626°W
Report Text: KTWF 221253Z 27018G26KT 10SM OVC008 04/02 A3004 RMK AO2 PK WND 25026/1215 CIG 007V011 SLP163 T00440022
Loading
Personal Weather Stations






























Interactive Weather Map New forecast layout! Learn more

10-Day Weather Forecast

Advertisements
Track Severe Weather on mobile